createdAt,value
2022-09-10T00:01:28.555Z,68907.31
2022-09-10T00:03:56.668Z,68902.59
2022-09-10T00:06:27.981Z,68895.03
2022-09-10T00:08:59.327Z,68905.66
2022-09-10T00:11:31.787Z,68891.97
2022-09-10T00:14:06.927Z,68884.97
2022-09-10T00:16:35.078Z,68888.94
2022-09-10T00:19:02.849Z,68887.22
2022-09-10T00:21:30.500Z,68886.28
2022-09-10T00:23:58.793Z,68885.53
2022-09-10T00:26:33.163Z,68876.41
2022-09-10T00:29:00.366Z,68896.91
2022-09-10T00:31:30.600Z,68891.78
2022-09-10T00:33:59.334Z,68890.28
2022-09-10T00:36:30.465Z,68878.31
2022-09-10T00:39:02.484Z,68887.22
2022-09-10T00:41:30.974Z,68888.38
2022-09-10T00:44:04.146Z,68883.63
2022-09-10T00:46:51.661Z,68883.25
2022-09-10T00:49:33.623Z,68893.88
2022-09-10T00:52:02.008Z,68870.34
2022-09-10T00:54:33.959Z,68857.81
2022-09-10T00:57:06.260Z,68880.78
2022-09-10T00:59:34.411Z,68877.00
2022-09-10T01:02:02.721Z,68835.94
2022-09-10T01:04:32.447Z,68871.88
2022-09-10T01:07:01.093Z,68883.06
2022-09-10T01:09:29.473Z,68865.63
2022-09-10T01:12:16.126Z,68866.00
2022-09-10T01:14:53.052Z,68849.84
2022-09-10T01:17:42.011Z,68866.38
2022-09-10T01:20:16.890Z,68858.59
2022-09-10T01:22:54.747Z,68828.63
2022-09-10T01:25:49.704Z,68834.13
2022-09-10T01:28:33.087Z,68834.88
2022-09-10T01:31:10.900Z,68833.75
2022-09-10T01:33:47.210Z,68820.69
2022-09-10T01:36:21.592Z,68808.34
2022-09-10T01:38:50.942Z,68802.47
2022-09-10T01:41:23.484Z,68789.94
2022-09-10T01:43:50.812Z,68776.88
2022-09-10T01:46:27.579Z,68783.13
2022-09-10T01:49:00.803Z,68771.75
2022-09-10T01:51:57.908Z,68771.75
2022-09-10T01:54:46.919Z,68768.34
2022-09-10T01:57:36.837Z,68761.13
2022-09-10T02:00:10.138Z,68773.28
2022-09-10T02:02:57.792Z,68768.91
2022-09-10T02:05:30.449Z,68769.66
2022-09-10T02:08:09.114Z,68775.75
2022-09-10T02:10:53.093Z,68783.69
2022-09-10T02:13:24.034Z,68778.00
2022-09-10T02:16:15.272Z,68781.41
2022-09-10T02:19:32.965Z,68777.41
2022-09-10T02:22:04.917Z,68772.31
2022-09-10T02:24:32.284Z,68769.28
2022-09-10T02:27:00.758Z,68756.97
2022-09-10T02:29:29.399Z,68750.72
2022-09-10T02:31:56.566Z,68729.03
2022-09-10T02:34:24.651Z,68761.34
2022-09-10T02:36:51.956Z,68750.13
2022-09-10T02:39:20.092Z,68738.75
2022-09-10T02:41:48.251Z,68737.44
2022-09-10T02:44:16.505Z,68754.13
2022-09-10T02:46:45.397Z,68742.75
2022-09-10T02:49:15.087Z,68738.75
2022-09-10T02:51:45.240Z,68728.53
2022-09-10T02:54:13.075Z,68724.00
2022-09-10T02:56:40.477Z,68725.13
2022-09-10T02:59:07.689Z,68726.28
2022-09-10T03:01:36.535Z,68720.59
2022-09-10T03:04:05.887Z,68722.84
2022-09-10T03:06:33.158Z,68729.31
2022-09-10T03:09:00.456Z,68709.22
2022-09-10T03:11:27.862Z,68695.19
2022-09-10T03:13:55.821Z,68691.59
2022-09-10T03:16:24.449Z,68688.19
2022-09-10T03:18:52.564Z,68671.53
2022-09-10T03:21:22.206Z,68673.22
2022-09-10T03:23:51.117Z,68668.88
2022-09-10T03:26:25.864Z,68660.34
2022-09-10T03:28:54.391Z,68661.88
2022-09-10T03:31:24.673Z,68650.13
2022-09-10T03:33:51.952Z,68652.19
2022-09-10T03:36:21.011Z,68647.25
2022-09-10T03:38:50.197Z,68666.59
2022-09-10T03:41:17.583Z,68680.06
2022-09-10T03:43:45.558Z,68666.44
2022-09-10T03:46:13.134Z,68649.19
2022-09-10T03:48:46.111Z,68660.75
2022-09-10T03:51:14.142Z,68647.47
2022-09-10T03:53:42.175Z,68649.16
2022-09-10T03:56:12.992Z,68664.31
2022-09-10T03:58:41.266Z,68674.56
2022-09-10T04:01:10.181Z,68668.69
2022-09-10T04:03:42.185Z,68668.88
2022-09-10T04:06:14.394Z,68661.66
2022-09-10T04:08:43.458Z,68656.75
2022-09-10T04:11:16.639Z,68655.22
2022-09-10T04:13:49.144Z,68653.53
2022-09-10T04:16:18.218Z,68644.59
2022-09-10T04:18:45.658Z,68665.47
2022-09-10T04:21:15.961Z,68669.44
2022-09-10T04:23:43.746Z,68672.28
2022-09-10T04:26:14.742Z,68670.56
2022-09-10T04:28:44.461Z,68681.38
2022-09-10T04:31:12.777Z,68698.44
2022-09-10T04:33:41.046Z,68686.50
2022-09-10T04:36:08.541Z,68691.81
2022-09-10T04:38:42.844Z,68680.44
2022-09-10T04:41:15.674Z,68705.25
2022-09-10T04:43:44.801Z,68715.47
2022-09-10T04:46:12.947Z,68705.63
2022-09-10T04:48:44.179Z,68698.03
2022-09-10T04:51:16.802Z,68672.22
2022-09-10T04:53:47.078Z,68701.25
2022-09-10T04:56:15.883Z,68686.09
2022-09-10T04:58:44.850Z,68684.78
2022-09-10T05:01:14.736Z,68667.34
2022-09-10T05:03:45.058Z,68668.31
2022-09-10T05:06:13.078Z,68695.97
2022-09-10T05:08:41.615Z,68680.44
2022-09-10T05:11:10.262Z,68683.09
2022-09-10T05:13:37.525Z,68689.34
2022-09-10T05:16:07.439Z,68691.44
2022-09-10T05:18:34.894Z,68683.84
2022-09-10T05:21:04.253Z,68686.50
2022-09-10T05:23:33.550Z,68686.50
2022-09-10T05:26:01.929Z,68692.34
2022-09-10T05:28:30.518Z,68705.44
2022-09-10T05:30:59.073Z,68708.09
2022-09-10T05:33:29.356Z,68705.44
2022-09-10T05:35:56.652Z,68692.56
2022-09-10T05:38:24.817Z,68696.16
2022-09-10T05:40:52.389Z,68695.78
2022-09-10T05:43:21.001Z,68689.91
2022-09-10T05:45:48.853Z,68693.88
2022-09-10T05:48:16.354Z,68690.66
2022-09-10T05:50:45.587Z,68678.72
2022-09-10T05:53:13.888Z,68696.72
2022-09-10T05:55:41.019Z,68694.44
2022-09-10T05:58:08.223Z,68707.34
2022-09-10T06:00:38.921Z,68713.78
2022-09-10T06:03:06.756Z,68724.00
2022-09-10T06:05:40.447Z,68719.47
2022-09-10T06:08:08.944Z,68716.81
2022-09-10T06:10:39.499Z,68733.09
2022-09-10T06:13:07.469Z,68739.16
2022-09-10T06:15:40.191Z,68760.56
2022-09-10T06:18:11.565Z,68747.47
2022-09-10T06:20:39.667Z,68773.63
2022-09-10T06:23:10.074Z,68806.28
2022-09-10T06:25:39.503Z,68810.81
2022-09-10T06:28:07.593Z,68810.44
2022-09-10T06:30:36.427Z,68784.78
2022-09-10T06:33:06.340Z,68807.50
2022-09-10T06:35:37.351Z,68850.25
2022-09-10T06:38:05.393Z,68876.31
2022-09-10T06:40:34.840Z,68952.88
2022-09-10T06:43:02.236Z,68962.00
2022-09-10T06:45:53.798Z,68976.59
2022-09-10T06:48:47.982Z,68986.63
2022-09-10T06:51:18.638Z,69005.66
2022-09-10T06:53:46.815Z,68991.75
2022-09-10T06:56:16.115Z,68998.81
2022-09-10T06:58:46.134Z,69004.69
2022-09-10T07:01:19.036Z,68987.44
2022-09-10T07:03:59.548Z,68964.06
2022-09-10T07:06:34.527Z,68968.06
2022-09-10T07:09:07.642Z,68944.16
2022-09-10T07:12:05.075Z,68954.41
2022-09-10T07:14:39.996Z,68962.38
2022-09-10T07:17:11.973Z,68984.00
2022-09-10T07:19:40.691Z,69007.34
2022-09-10T07:22:34.432Z,69017.59
2022-09-10T07:25:07.604Z,69017.59
2022-09-10T07:27:51.706Z,68996.72
2022-09-10T07:30:19.007Z,69012.66
2022-09-10T07:32:48.812Z,69012.25
2022-09-10T07:35:18.963Z,69039.06
2022-09-10T07:37:46.796Z,69016.28
2022-09-10T07:40:15.546Z,68986.28
2022-09-10T07:42:44.657Z,68985.13
2022-09-10T07:45:15.862Z,68989.31
2022-09-10T07:47:46.939Z,68982.47
2022-09-10T07:50:15.787Z,68987.59
2022-09-10T07:52:43.505Z,68979.22
2022-09-10T07:55:18.766Z,68976.78
2022-09-10T07:57:46.599Z,68980.03
2022-09-10T08:00:20.153Z,68964.81
2022-09-10T08:02:52.626Z,68976.22
2022-09-10T08:05:24.063Z,68967.38
2022-09-10T08:07:54.321Z,68957.13
2022-09-10T08:10:24.695Z,68992.72
2022-09-10T08:12:53.585Z,69005.09
2022-09-10T08:15:27.225Z,69004.09
2022-09-10T08:17:56.145Z,69040.38
2022-09-10T08:20:25.322Z,69065.47
2022-09-10T08:22:57.516Z,69035.81
2022-09-10T08:25:28.887Z,69011.75
2022-09-10T08:27:58.198Z,69001.81
2022-09-10T08:30:26.387Z,69005.81
2022-09-10T08:32:55.030Z,69033.53
2022-09-10T08:35:22.602Z,69035.25
2022-09-10T08:37:53.855Z,69042.25
2022-09-10T08:40:23.738Z,69055.19
2022-09-10T08:42:52.822Z,69058.06
2022-09-10T08:45:32.859Z,69039.25
2022-09-10T08:48:08.828Z,69052.53
2022-09-10T08:50:47.429Z,69080.84
2022-09-10T08:53:42.029Z,69102.50
2022-09-10T08:56:15.736Z,69163.50
2022-09-10T08:59:29.208Z,69192.41
2022-09-10T09:02:37.772Z,69194.28
2022-09-10T09:05:20.186Z,69192.16
2022-09-10T09:07:52.002Z,69139.72
2022-09-10T09:10:25.702Z,69145.81
2022-09-10T09:13:18.646Z,69144.09
2022-09-10T09:15:59.122Z,69119.22
2022-09-10T09:18:44.477Z,69078.19
2022-09-10T09:21:26.169Z,69051.22
2022-09-10T09:24:12.801Z,69033.53
2022-09-10T09:26:50.178Z,69029.56
2022-09-10T09:29:38.143Z,69053.69
2022-09-10T09:32:06.719Z,69081.28
2022-09-10T09:34:39.656Z,69093.81
2022-09-10T09:37:21.453Z,69125.88
2022-09-10T09:40:05.505Z,69147.53
2022-09-10T09:42:44.182Z,69188.19
2022-09-10T09:45:23.582Z,69222.97
2022-09-10T09:47:52.401Z,69211.22
2022-09-10T09:50:19.898Z,69205.09
2022-09-10T09:52:47.581Z,69238.38
2022-09-10T09:55:28.143Z,69244.88
2022-09-10T09:58:21.242Z,69214.81
2022-09-10T10:00:52.580Z,69171.66
2022-09-10T10:03:26.649Z,69142.22
2022-09-10T10:06:03.028Z,69154.94
2022-09-10T10:08:34.469Z,69173.34
2022-09-10T10:15:36.584Z,69281.16
2022-09-10T10:18:28.996Z,69336.34
2022-09-10T10:21:20.112Z,69382.19
2022-09-10T10:23:48.606Z,69337.63
2022-09-10T10:26:21.600Z,69284.41
2022-09-10T10:28:51.733Z,69231.16
2022-09-10T10:31:20.078Z,69202.44
2022-09-10T10:34:08.218Z,69232.66
2022-09-10T10:37:33.718Z,69245.59
2022-09-10T10:40:30.624Z,69271.88
2022-09-10T10:43:23.004Z,69277.72
2022-09-10T10:46:10.021Z,69306.25
2022-09-10T10:48:44.738Z,69319.59
2022-09-10T10:51:25.155Z,69356.13
2022-09-10T10:54:10.664Z,69378.38
2022-09-10T10:56:55.519Z,69407.13
2022-09-10T10:59:41.049Z,69375.31
2022-09-10T11:02:15.158Z,69298.09
2022-09-10T11:04:48.728Z,69256.44
2022-09-10T11:07:23.194Z,69230.94
2022-09-10T11:10:25.350Z,69217.25
2022-09-10T11:13:11.042Z,69213.28
2022-09-10T11:15:46.642Z,69190.47
2022-09-10T11:18:33.485Z,69173.94
2022-09-10T11:21:10.322Z,69176.03
2022-09-10T11:24:17.181Z,69178.31
2022-09-10T11:26:54.219Z,69164.66
2022-09-10T11:29:36.489Z,69166.91
2022-09-10T11:32:07.080Z,69167.88
2022-09-10T11:34:49.413Z,69230.19
2022-09-10T11:37:25.295Z,69278.69
2022-09-10T11:39:56.134Z,69322.06
2022-09-10T11:42:29.010Z,69369.63
2022-09-10T11:45:06.479Z,69405.41
2022-09-10T11:47:40.363Z,69435.28
2022-09-10T11:50:13.622Z,69470.69
2022-09-10T11:52:41.054Z,69425.75
2022-09-10T11:55:17.650Z,69396.06
2022-09-10T11:58:15.864Z,69383.91
2022-09-10T12:01:05.645Z,69344.88
2022-09-10T12:03:52.403Z,69356.13
2022-09-10T12:06:26.425Z,69352.88
2022-09-10T12:09:12.494Z,69312.19
2022-09-10T12:12:05.986Z,69237.22
2022-09-10T12:14:33.343Z,69193.31
2022-09-10T12:17:19.512Z,69215.38
2022-09-10T12:19:54.818Z,69254.00
2022-09-10T12:22:30.714Z,69323.00
2022-09-10T12:25:03.082Z,69392.28
2022-09-10T12:27:53.969Z,69408.84
2022-09-10T12:30:36.299Z,69372.47
2022-09-10T12:33:12.356Z,69323.94
2022-09-10T12:35:48.513Z,69297.53
2022-09-10T12:38:49.976Z,69297.69
2022-09-10T12:41:20.308Z,69300.00
2022-09-10T12:43:47.389Z,69291.25
2022-09-10T12:46:14.599Z,69223.75
2022-09-10T12:48:47.953Z,69237.06
2022-09-10T12:51:20.963Z,69210.66
2022-09-10T12:54:15.474Z,69227.53
2022-09-10T12:57:20.812Z,69208.94
2022-09-10T13:00:06.782Z,69258.88
2022-09-10T13:02:40.408Z,69243.13
2022-09-10T13:05:44.883Z,69261.75
2022-09-10T13:08:28.196Z,69275.28
2022-09-10T13:10:56.403Z,69253.75
2022-09-10T13:13:44.926Z,69265.56
2022-09-10T13:16:17.774Z,69258.31
2022-09-10T13:18:46.771Z,69245.03
2022-09-10T13:21:22.911Z,69253.56
2022-09-10T13:23:53.632Z,69237.81
2022-09-10T13:26:37.414Z,69253.75
2022-09-10T13:29:11.375Z,69306.66
2022-09-10T13:31:45.329Z,69329.66
2022-09-10T13:34:15.476Z,69340.66
2022-09-10T13:37:11.292Z,69357.03
2022-09-10T13:40:00.323Z,69366.75
2022-09-10T13:43:03.054Z,69382.97
2022-09-10T13:45:48.751Z,69397.06
2022-09-10T13:48:21.043Z,69398.56
2022-09-10T13:50:52.716Z,69374.41
2022-09-10T13:53:21.616Z,69418.13
2022-09-10T13:55:58.637Z,69440.25
2022-09-10T13:58:31.917Z,69470.53
2022-09-10T14:01:02.828Z,69450.69
2022-09-10T14:03:40.557Z,69434.13
2022-09-10T14:06:25.912Z,69444.97
2022-09-10T14:08:57.251Z,69464.97
2022-09-10T14:11:34.993Z,69400.28
2022-09-10T14:14:19.815Z,69327.94
2022-09-10T14:16:52.558Z,69266.53
2022-09-10T14:19:29.626Z,69220.50
2022-09-10T14:21:57.396Z,69186.66
2022-09-10T14:24:27.516Z,69177.38
2022-09-10T14:27:06.747Z,69169.38
2022-09-10T14:29:34.002Z,69145.81
2022-09-10T14:32:23.106Z,69144.09
2022-09-10T14:34:50.588Z,69149.97
2022-09-10T14:37:29.449Z,69188.75
2022-09-10T14:39:57.101Z,69234.94
2022-09-10T14:42:27.339Z,69285.56
2022-09-10T14:44:54.955Z,69334.44
2022-09-10T14:47:34.996Z,69373.84
2022-09-10T14:50:34.342Z,69338.63
2022-09-10T14:53:01.760Z,69311.38
2022-09-10T14:55:32.015Z,69313.69
2022-09-10T14:57:59.344Z,69284.22
2022-09-10T15:00:26.642Z,69273.56
2022-09-10T15:02:57.309Z,69246.75
2022-09-10T15:05:24.789Z,69246.75
2022-09-10T15:07:51.981Z,69255.84
2022-09-10T15:10:19.298Z,69250.19
2022-09-10T15:12:49.992Z,69241.78
2022-09-10T15:15:18.099Z,69218.78
2022-09-10T15:17:45.309Z,69197.31
2022-09-10T15:20:14.611Z,69171.47
2022-09-10T15:22:43.854Z,69136.53
2022-09-10T15:25:38.064Z,69114.47
2022-09-10T15:28:07.572Z,69082.97
2022-09-10T15:30:36.022Z,69088.25
2022-09-10T15:33:04.822Z,69077.44
2022-09-10T15:35:32.236Z,69055.97
2022-09-10T15:38:02.571Z,69058.22
2022-09-10T15:40:29.789Z,69075.16
2022-09-10T15:42:57.797Z,69065.06
2022-09-10T15:45:25.318Z,69042.25
2022-09-10T15:47:52.429Z,69033.94
2022-09-10T15:50:20.297Z,69026.13
2022-09-10T15:52:47.448Z,69010.19
2022-09-10T15:55:14.607Z,69009.28
2022-09-10T15:57:42.039Z,68996.13
2022-09-10T16:00:09.909Z,68988.75
2022-09-10T16:02:37.068Z,68984.00
2022-09-10T16:05:06.060Z,68983.06
2022-09-10T16:07:33.519Z,68986.44
2022-09-10T16:10:01.417Z,68998.81
2022-09-10T16:12:28.480Z,69006.78
2022-09-10T16:14:55.837Z,69007.34
2022-09-10T16:17:22.986Z,69023.31
2022-09-10T16:19:51.552Z,69057.50
2022-09-10T16:22:20.756Z,69071.53
2022-09-10T16:24:48.171Z,69059.19
2022-09-10T16:27:17.500Z,69061.50
2022-09-10T16:29:48.483Z,69074.75
2022-09-10T16:32:15.790Z,69065.34
2022-09-10T16:34:42.939Z,69097.94
2022-09-10T16:37:10.120Z,69087.13
2022-09-10T16:39:37.292Z,69082.16
2022-09-10T16:42:04.523Z,69059.53
2022-09-10T16:44:32.439Z,69063.94
2022-09-10T16:46:59.642Z,69090.91
2022-09-10T16:49:27.494Z,69094.69
2022-09-10T16:51:54.751Z,69117.16
2022-09-10T16:54:22.942Z,69090.97
2022-09-10T16:56:50.559Z,69108.19
2022-09-10T16:59:20.792Z,69069.31
2022-09-10T17:01:49.127Z,69067.34
2022-09-10T17:04:22.305Z,69055.78
2022-09-10T17:06:52.168Z,69037.94
2022-09-10T17:09:19.365Z,69034.69
2022-09-10T17:11:46.565Z,69026.72
2022-09-10T17:14:13.673Z,69022.72
2022-09-10T17:16:42.229Z,69024.81
2022-09-10T17:19:15.528Z,69010.78
2022-09-10T17:21:44.970Z,69002.63
2022-09-10T17:24:13.171Z,68994.81
2022-09-10T17:26:41.569Z,68993.50
2022-09-10T17:29:17.057Z,68995.78
2022-09-10T17:31:46.619Z,68995.22
2022-09-10T17:34:15.363Z,68979.06
2022-09-10T17:36:45.304Z,68973.75
2022-09-10T17:39:13.161Z,68971.47
2022-09-10T17:41:41.058Z,68971.13
2022-09-10T17:44:08.324Z,68956.09
2022-09-10T17:46:36.275Z,68943.59
2022-09-10T17:49:04.352Z,68941.31
2022-09-10T17:51:34.098Z,68930.69
2022-09-10T17:54:03.310Z,68931.06
2022-09-10T17:56:31.478Z,68903.03
2022-09-10T17:59:04.189Z,68928.22
2022-09-10T18:01:37.768Z,68928.78
2022-09-10T18:04:06.448Z,68933.91
2022-09-10T18:06:36.765Z,68927.66
2022-09-10T18:09:05.413Z,68932.75
2022-09-10T18:11:35.693Z,68934.69
2022-09-10T18:14:03.827Z,68927.81
2022-09-10T18:16:33.663Z,68923.66
2022-09-10T18:19:03.439Z,68925.72
2022-09-10T18:21:36.484Z,68921.56
2022-09-10T18:24:22.820Z,68931.44
2022-09-10T18:26:53.864Z,68929.38
2022-09-10T18:29:24.397Z,68925.94
2022-09-10T18:31:53.988Z,68923.06
2022-09-10T18:34:24.101Z,68914.16
2022-09-10T18:36:54.560Z,68911.88
2022-09-10T18:39:23.442Z,68917.97
2022-09-10T18:41:51.659Z,68911.72
2022-09-10T18:44:21.837Z,68908.28
2022-09-10T18:46:50.634Z,68904.13
2022-09-10T18:49:21.470Z,68887.59
2022-09-10T18:51:50.885Z,68881.53
2022-09-10T18:54:19.028Z,68875.28
2022-09-10T18:56:48.181Z,68876.81
2022-09-10T18:59:20.314Z,68866.75
2022-09-10T19:01:49.145Z,68864.84
2022-09-10T19:04:20.047Z,68861.03
2022-09-10T19:06:48.773Z,68855.38
2022-09-10T19:09:18.786Z,68852.53
2022-09-10T19:11:48.599Z,68867.31
2022-09-10T19:14:42.012Z,68874.88
2022-09-10T19:17:09.172Z,68869.59
2022-09-10T19:19:36.446Z,68865.63
2022-09-10T19:22:10.489Z,68829.69
2022-09-10T19:24:54.627Z,68864.47
2022-09-10T19:27:22.955Z,68865.63
2022-09-10T19:29:50.547Z,68854.22
2022-09-10T19:32:19.936Z,68846.84
2022-09-10T19:34:51.430Z,68847.97
2022-09-10T19:37:19.620Z,68841.91
2022-09-10T19:39:47.707Z,68841.72
2022-09-10T19:42:15.199Z,68869.03
2022-09-10T19:44:42.332Z,68866.00
2022-09-10T19:47:09.762Z,68862.19
2022-09-10T19:49:36.934Z,68878.88
2022-09-10T19:52:04.412Z,68868.06
2022-09-10T19:54:32.005Z,68865.22
2022-09-10T19:56:59.133Z,68873.22
2022-09-10T19:59:26.302Z,68871.47
2022-09-10T20:01:53.885Z,68866.75
2022-09-10T20:04:21.353Z,68860.47
2022-09-10T20:06:50.375Z,68862.59
2022-09-10T20:09:18.025Z,68857.06
2022-09-10T20:11:45.304Z,68850.25
2022-09-10T20:14:14.285Z,68856.50
2022-09-10T20:16:44.024Z,68859.72
2022-09-10T20:19:13.809Z,68874.88
2022-09-10T20:21:42.263Z,68878.50
2022-09-10T20:24:10.648Z,68846.72
2022-09-10T20:26:39.882Z,68862.19
2022-09-10T20:29:12.158Z,68857.81
2022-09-10T20:31:41.343Z,68863.34
2022-09-10T20:34:12.844Z,68869.75
2022-09-10T20:36:42.483Z,68866.75
2022-09-10T20:39:13.649Z,68852.53
2022-09-10T20:41:41.787Z,68860.31
2022-09-10T20:44:13.554Z,68849.50
2022-09-10T20:46:44.000Z,68844.94
2022-09-10T20:49:12.607Z,68836.22
2022-09-10T20:51:40.988Z,68848.94
2022-09-10T20:54:11.510Z,68838.66
2022-09-10T20:56:39.131Z,68844.00
2022-09-10T20:59:06.287Z,68832.63
2022-09-10T21:01:34.195Z,68828.06
2022-09-10T21:04:01.616Z,68832.06
2022-09-10T21:06:31.621Z,68821.81
2022-09-10T21:09:00.786Z,68818.78
2022-09-10T21:11:31.103Z,68808.16
2022-09-10T21:14:00.356Z,68812.53
2022-09-10T21:16:33.208Z,68805.31
2022-09-10T21:19:12.418Z,68805.31
2022-09-10T21:21:41.102Z,68792.78
2022-09-10T21:24:11.707Z,68785.19
2022-09-10T21:26:40.673Z,68792.22
2022-09-10T21:29:11.243Z,68790.50
2022-09-10T21:31:39.268Z,68785.97
2022-09-10T21:34:06.314Z,68786.53
2022-09-10T21:36:36.293Z,68788.25
2022-09-10T21:39:06.749Z,68776.31
2022-09-10T21:41:41.691Z,68774.97
2022-09-10T21:44:14.217Z,68737.56
2022-09-10T21:46:42.875Z,68761.91
2022-09-10T21:49:10.506Z,68757.72
2022-09-10T21:51:38.083Z,68757.91
2022-09-10T21:54:05.613Z,68756.97
2022-09-10T21:56:33.103Z,68747.88
2022-09-10T21:59:00.764Z,68752.06
2022-09-10T22:01:30.781Z,68744.28
2022-09-10T22:04:00.562Z,68741.06
2022-09-10T22:06:32.982Z,68736.69
2022-09-10T22:09:04.148Z,68738.03
2022-09-10T22:11:34.442Z,68732.50
2022-09-10T22:14:07.360Z,68724.00
2022-09-10T22:16:35.801Z,68731.03
2022-09-10T22:19:06.838Z,68724.38
2022-09-10T22:21:38.122Z,68733.66
2022-09-10T22:24:06.640Z,68731.41
2022-09-10T22:26:34.421Z,68735.94
2022-09-10T22:29:03.164Z,68740.69
2022-09-10T22:31:32.875Z,68732.50
2022-09-10T22:34:02.987Z,68734.63
2022-09-10T22:36:32.961Z,68728.53
2022-09-10T22:39:02.483Z,68723.59
2022-09-10T22:41:31.771Z,68727.41
2022-09-10T22:43:59.169Z,68723.03
2022-09-10T22:46:27.031Z,68719.81
2022-09-10T22:48:54.571Z,68717.56
2022-09-10T22:51:24.733Z,68716.03
2022-09-10T22:53:53.852Z,68715.47
2022-09-10T22:56:22.854Z,68710.34
2022-09-10T22:58:53.437Z,68713.59
2022-09-10T23:01:23.295Z,68710.00
2022-09-10T23:03:52.131Z,68708.66
2022-09-10T23:06:22.138Z,68707.50
2022-09-10T23:08:52.271Z,68711.88
2022-09-10T23:11:25.292Z,68712.47
2022-09-10T23:13:57.539Z,68716.59
2022-09-10T23:16:31.912Z,68711.69
2022-09-10T23:19:01.051Z,68712.06
2022-09-10T23:21:29.651Z,68712.06
2022-09-10T23:24:02.787Z,68713.03
2022-09-10T23:26:30.648Z,68720.22
2022-09-10T23:28:58.341Z,68716.44
2022-09-10T23:31:28.007Z,68717.94
2022-09-10T23:34:00.301Z,68725.31
2022-09-10T23:36:31.333Z,68730.63
2022-09-10T23:38:59.377Z,68724.16
2022-09-10T23:41:26.391Z,68713.94
2022-09-10T23:43:54.301Z,68716.03
2022-09-10T23:46:21.721Z,68716.81
2022-09-10T23:48:49.461Z,68712.25
2022-09-10T23:51:19.264Z,68709.03
2022-09-10T23:53:48.192Z,68700.47
2022-09-10T23:56:17.734Z,68701.81
2022-09-10T23:58:45.763Z,68699.78
